createdAt,value
2019-06-20T00:00:52.917Z,99034.97
2019-06-20T00:03:43.924Z,99024.61
2019-06-20T00:06:34.639Z,99037.11
2019-06-20T00:09:26.153Z,99012.98
2019-06-20T00:12:17.687Z,98996.28
2019-06-20T00:15:07.978Z,98979.92
2019-06-20T00:17:59.300Z,98972.48
2019-06-20T00:20:50.051Z,98965.34
2019-06-20T00:23:40.671Z,98961.16
2019-06-20T00:26:31.906Z,98938.62
2019-06-20T00:29:22.964Z,98922.44
2019-06-20T00:32:14.245Z,98867.20
2019-06-20T00:35:05.231Z,98811.99
2019-06-20T00:37:55.994Z,98820.63
2019-06-20T00:40:47.115Z,98824.71
2019-06-20T00:43:37.731Z,98816.62
2019-06-20T00:46:28.082Z,98822.80
2019-06-20T00:49:19.232Z,98811.80
2019-06-20T00:52:10.452Z,98827.17
2019-06-20T00:55:01.183Z,98818.78
2019-06-20T00:57:52.036Z,98804.85
2019-06-20T01:00:43.164Z,98821.70
2019-06-20T01:03:34.300Z,98880.47
2019-06-20T01:06:24.846Z,98895.20
2019-06-20T01:09:16.166Z,98889.04
2019-06-20T01:12:06.742Z,98900.23
2019-06-20T01:14:57.564Z,98883.72
2019-06-20T01:17:48.763Z,98887.89
2019-06-20T01:20:39.095Z,98907.00
2019-06-20T01:23:29.425Z,98916.05
2019-06-20T01:26:19.708Z,98915.28
2019-06-20T01:29:10.310Z,98926.14
2019-06-20T01:32:01.564Z,98925.47
2019-06-20T01:34:52.508Z,98917.05
2019-06-20T01:37:43.860Z,98912.37
2019-06-20T01:40:34.396Z,98910.25
2019-06-20T01:43:25.356Z,98906.84
2019-06-20T01:46:15.851Z,98910.44
2019-06-20T01:49:06.735Z,98919.33
2019-06-20T01:51:57.631Z,98927.25
2019-06-20T01:54:47.809Z,98923.23
2019-06-20T01:57:39.075Z,98928.41
2019-06-20T02:00:45.679Z,98925.33
2019-06-20T02:03:36.945Z,98923.54
2019-06-20T02:06:28.195Z,98935.19
2019-06-20T02:09:18.295Z,98941.34
2019-06-20T02:12:08.715Z,98942.64
2019-06-20T02:14:59.219Z,98936.34
2019-06-20T02:17:50.493Z,98936.50
2019-06-20T02:20:46.951Z,98941.99
2019-06-20T02:23:37.497Z,98946.72
2019-06-20T02:26:28.557Z,98949.61
2019-06-20T02:29:19.548Z,98955.30
2019-06-20T02:32:10.519Z,98966.14
2019-06-20T02:35:02.550Z,98970.33
2019-06-20T02:37:53.558Z,98967.73
2019-06-20T02:40:44.230Z,98968.23
2019-06-20T02:43:34.511Z,98971.64
2019-06-20T02:46:24.827Z,98970.81
2019-06-20T02:49:15.571Z,98968.73
2019-06-20T02:52:05.754Z,98976.48
2019-06-20T02:54:56.941Z,98976.17
2019-06-20T02:57:48.270Z,98975.69
2019-06-20T03:00:58.740Z,98984.57
2019-06-20T03:03:48.875Z,98992.34
2019-06-20T03:06:39.872Z,98996.55
2019-06-20T03:09:31.887Z,98994.77
2019-06-20T03:12:23.177Z,98996.23
2019-06-20T03:15:15.579Z,99000.13
2019-06-20T03:18:06.339Z,99004.66
2019-06-20T03:20:56.426Z,99010.48
2019-06-20T03:23:47.043Z,99011.62
2019-06-20T03:26:38.318Z,99013.70
2019-06-20T03:29:29.401Z,99015.63
2019-06-20T03:32:19.582Z,99023.58
2019-06-20T03:35:10.241Z,99028.59
2019-06-20T03:38:00.953Z,99027.92
2019-06-20T03:40:51.813Z,99036.03
2019-06-20T03:43:42.362Z,99039.11
2019-06-20T03:46:33.529Z,99035.08
2019-06-20T03:49:24.918Z,99032.31
2019-06-20T03:52:15.571Z,99038.14
2019-06-20T03:55:06.807Z,99032.78
2019-06-20T03:57:58.414Z,99028.59
2019-06-20T04:00:49.763Z,99025.98
2019-06-20T04:03:40.211Z,99031.98
2019-06-20T04:06:30.632Z,99029.25
2019-06-20T04:09:20.806Z,99019.69
2019-06-20T04:12:11.812Z,99020.67
2019-06-20T04:15:18.007Z,99029.71
2019-06-20T04:17:54.953Z,99027.14
2019-06-20T04:20:45.690Z,99026.49
2019-06-20T04:23:36.653Z,99026.02
2019-06-20T04:26:27.025Z,99028.11
2019-06-20T04:29:18.278Z,99025.02
2019-06-20T04:32:09.155Z,99031.83
2019-06-20T04:34:59.545Z,99038.45
2019-06-20T04:37:50.989Z,99039.26
2019-06-20T04:40:42.426Z,99037.96
2019-06-20T04:43:33.710Z,99036.66
2019-06-20T04:46:32.808Z,99042.33
2019-06-20T04:49:24.105Z,99040.87
2019-06-20T04:52:15.080Z,99049.46
2019-06-20T04:55:05.486Z,99046.23
2019-06-20T04:57:57.142Z,99045.09
2019-06-20T05:00:48.678Z,99045.26
2019-06-20T05:03:39.521Z,99045.27
2019-06-20T05:06:30.359Z,99042.50
2019-06-20T05:09:21.302Z,99042.03
2019-06-20T05:12:12.470Z,99045.44
2019-06-20T05:15:02.773Z,99046.73
2019-06-20T05:17:53.488Z,99048.84
2019-06-20T05:20:44.361Z,99046.08
2019-06-20T05:23:34.507Z,99048.51
2019-06-20T05:26:25.471Z,99046.41
2019-06-20T05:29:15.713Z,99049.16
2019-06-20T05:32:05.883Z,99050.94
2019-06-20T05:34:57.170Z,99048.83
2019-06-20T05:37:47.606Z,99051.26
2019-06-20T05:40:38.258Z,99052.89
2019-06-20T05:43:29.647Z,99054.49
2019-06-20T05:46:20.694Z,99059.71
2019-06-20T05:49:11.324Z,99051.77
2019-06-20T05:52:01.983Z,99049.02
2019-06-20T05:54:52.267Z,99050.48
2019-06-20T05:57:43.230Z,99051.44
2019-06-20T06:00:34.511Z,99050.94
2019-06-20T06:03:25.915Z,99048.03
2019-06-20T06:06:17.204Z,99049.81
2019-06-20T06:09:08.509Z,99047.68
2019-06-20T06:11:59.303Z,99047.67
2019-06-20T06:14:50.051Z,99047.51
2019-06-20T06:17:40.163Z,99044.90
2019-06-20T06:20:30.543Z,99039.55
2019-06-20T06:23:21.408Z,99038.57
2019-06-20T06:26:12.579Z,99041.78
2019-06-20T06:29:03.386Z,99042.27
2019-06-20T06:31:53.978Z,99044.52
2019-06-20T06:34:44.645Z,99044.53
2019-06-20T06:37:35.879Z,99049.73
2019-06-20T06:40:27.795Z,99049.69
2019-06-20T06:43:18.411Z,99050.80
2019-06-20T06:46:09.090Z,99054.34
2019-06-20T06:48:59.775Z,99053.05
2019-06-20T06:51:50.726Z,99052.56
2019-06-20T06:54:40.914Z,99061.44
2019-06-20T06:57:31.276Z,99059.97
2019-06-20T07:00:22.241Z,99059.80
2019-06-20T07:03:13.600Z,99056.21
2019-06-20T07:06:04.729Z,99062.39
2019-06-20T07:08:55.082Z,99062.85
2019-06-20T07:11:46.037Z,99069.51
2019-06-20T07:14:36.908Z,99068.52
2019-06-20T07:17:27.042Z,99069.00
2019-06-20T07:20:17.224Z,99074.66
2019-06-20T07:23:07.556Z,99073.68
2019-06-20T07:25:57.973Z,99068.00
2019-06-20T07:28:51.437Z,99073.66
2019-06-20T07:31:40.255Z,99073.47
2019-06-20T07:34:31.659Z,99079.47
2019-06-20T07:37:22.659Z,99078.16
2019-06-20T07:40:13.774Z,99076.86
2019-06-20T07:43:03.927Z,99080.75
2019-06-20T07:46:02.740Z,99077.36
2019-06-20T07:48:47.461Z,99076.20
2019-06-20T07:51:38.125Z,99077.17
2019-06-20T07:54:28.721Z,99074.27
2019-06-20T07:57:19.069Z,99069.22
2019-06-20T08:00:10.598Z,99062.77
2019-06-20T08:03:01.471Z,99067.45
2019-06-20T08:05:52.638Z,99059.83
2019-06-20T08:08:43.417Z,99063.08
2019-06-20T08:11:34.082Z,99067.45
2019-06-20T08:14:25.367Z,99072.14
2019-06-20T08:17:15.888Z,99073.08
2019-06-20T08:20:07.387Z,99072.39
2019-06-20T08:22:57.823Z,99062.19
2019-06-20T08:25:48.054Z,99071.77
2019-06-20T08:28:39.389Z,99071.27
2019-06-20T08:31:29.866Z,99071.44
2019-06-20T08:34:21.316Z,99070.46
2019-06-20T08:37:12.773Z,99065.77
2019-06-20T08:40:04.234Z,99064.28
2019-06-20T08:42:57.149Z,99065.88
2019-06-20T08:45:47.354Z,99065.02
2019-06-20T08:48:38.567Z,99063.71
2019-06-20T08:51:29.878Z,99062.22
2019-06-20T08:54:21.320Z,99064.31
2019-06-20T08:57:12.007Z,99069.63
2019-06-20T09:02:55.658Z,99060.69
2019-06-20T09:05:47.238Z,99060.20
2019-06-20T09:08:38.202Z,99060.95
2019-06-20T09:11:28.603Z,99060.47
2019-06-20T09:14:19.276Z,99063.04
2019-06-20T09:17:09.548Z,99061.86
2019-06-20T09:20:00.368Z,99065.75
2019-06-20T09:22:52.295Z,99061.36
2019-06-20T09:25:44.525Z,99062.83
2019-06-20T09:28:35.330Z,99063.02
2019-06-20T09:31:25.543Z,99061.79
2019-06-20T09:34:16.209Z,99066.69
2019-06-20T09:37:07.408Z,99070.45
2019-06-20T09:39:59.174Z,99072.44
2019-06-20T09:42:52.872Z,99078.94
2019-06-20T09:45:44.011Z,99077.84
2019-06-20T09:48:34.755Z,99080.33
2019-06-20T09:51:25.350Z,99080.98
2019-06-20T09:54:16.228Z,99082.31
2019-06-20T09:57:07.271Z,99073.05
2019-06-20T10:00:07.900Z,99070.94
2019-06-20T10:02:50.667Z,99071.09
2019-06-20T10:05:42.136Z,99074.69
2019-06-20T10:08:34.095Z,99078.11
2019-06-20T10:11:25.428Z,99077.30
2019-06-20T10:14:15.640Z,99081.38
2019-06-20T10:17:06.599Z,99080.25
2019-06-20T10:19:57.814Z,99087.06
2019-06-20T10:22:48.535Z,99085.31
2019-06-20T10:25:39.787Z,99079.78
2019-06-20T10:28:30.190Z,99072.65
2019-06-20T10:31:22.308Z,99066.80
2019-06-20T10:34:13.255Z,99066.44
2019-06-20T10:37:03.479Z,99068.00
2019-06-20T10:39:54.644Z,99078.03
2019-06-20T10:42:48.024Z,99081.46
2019-06-20T10:45:39.581Z,99092.19
2019-06-20T10:48:30.630Z,99106.98
2019-06-20T10:51:35.164Z,99127.30
2019-06-20T10:54:27.449Z,99142.73
2019-06-20T10:57:17.753Z,99146.80
2019-06-20T11:00:11.632Z,99137.72
2019-06-20T11:03:01.738Z,99123.66
2019-06-20T11:05:52.197Z,99142.34
2019-06-20T11:08:43.349Z,99149.64
2019-06-20T11:11:33.456Z,99146.28
2019-06-20T11:14:23.853Z,99149.38
2019-06-20T11:17:14.907Z,99147.74
2019-06-20T11:20:06.869Z,99146.32
2019-06-20T11:22:59.121Z,99140.64
2019-06-20T11:25:49.404Z,99143.09
2019-06-20T11:28:41.383Z,99138.71
2019-06-20T11:31:13.992Z,99138.86
2019-06-20T11:33:46.388Z,99141.31
2019-06-20T11:36:18.733Z,99140.17
2019-06-20T11:38:51.212Z,99147.92
2019-06-20T11:41:23.621Z,99142.92
2019-06-20T11:43:55.940Z,99137.88
2019-06-20T11:46:28.366Z,99132.20
2019-06-20T11:49:00.717Z,99127.48
2019-06-20T11:51:34.289Z,99126.02
2019-06-20T11:54:07.327Z,99124.87
2019-06-20T11:56:39.796Z,99121.31
2019-06-20T11:59:12.230Z,99115.47
2019-06-20T12:01:44.943Z,99113.00
2019-06-20T12:04:17.383Z,99109.27
2019-06-20T12:06:49.815Z,99097.08
2019-06-20T12:09:22.237Z,99091.20
2019-06-20T12:11:54.664Z,99090.38
2019-06-20T12:14:27.066Z,99082.07
2019-06-20T12:16:59.522Z,99083.67
2019-06-20T12:19:32.055Z,99080.41
2019-06-20T12:22:04.559Z,99076.84
2019-06-20T12:24:38.163Z,99076.48
2019-06-20T12:27:11.085Z,99077.11
2019-06-20T12:29:44.361Z,99074.01
2019-06-20T12:32:19.263Z,99074.80
2019-06-20T12:34:51.727Z,99072.99
2019-06-20T12:37:24.155Z,99066.00
2019-06-20T12:39:56.923Z,99072.78
2019-06-20T12:42:29.344Z,99077.47
2019-06-20T12:45:04.920Z,99074.84
2019-06-20T12:47:40.239Z,99075.48
2019-06-20T12:50:13.005Z,99075.66
2019-06-20T12:52:45.931Z,99075.13
2019-06-20T12:55:19.545Z,99071.89
2019-06-20T12:57:52.055Z,99074.16
2019-06-20T13:00:24.459Z,99077.42
2019-06-20T13:02:56.956Z,99086.03
2019-06-20T13:05:29.764Z,99085.87
2019-06-20T13:08:02.310Z,99086.25
2019-06-20T13:10:35.935Z,99086.92
2019-06-20T13:13:08.372Z,99079.80
2019-06-20T13:15:40.772Z,99072.83
2019-06-20T13:18:13.361Z,99068.00
2019-06-20T13:20:46.507Z,99062.03
2019-06-20T13:23:18.983Z,99084.96
2019-06-20T13:25:52.293Z,99083.98
2019-06-20T13:28:24.791Z,99076.22
2019-06-20T13:30:57.554Z,99058.17
2019-06-20T13:33:30.156Z,99051.86
2019-06-20T13:36:02.835Z,99051.38
2019-06-20T13:38:35.532Z,99069.55
2019-06-20T13:41:08.224Z,99068.25
2019-06-20T13:43:41.251Z,99069.55
2019-06-20T13:46:13.572Z,99069.91
2019-06-20T13:48:47.438Z,99070.39
2019-06-20T13:51:19.917Z,99073.64
2019-06-20T13:53:53.110Z,99063.11
2019-06-20T13:56:25.538Z,99042.66
2019-06-20T13:58:57.895Z,99046.53
2019-06-20T14:01:30.438Z,99045.89
2019-06-20T14:04:03.057Z,99048.78
2019-06-20T14:06:35.519Z,99047.17
2019-06-20T14:09:10.767Z,99041.96
2019-06-20T14:11:43.328Z,99032.55
2019-06-20T14:14:15.734Z,99035.43
2019-06-20T14:16:48.819Z,99039.48
2019-06-20T14:19:21.365Z,99036.73
2019-06-20T14:21:54.320Z,99037.69
2019-06-20T14:24:27.067Z,99042.58
2019-06-20T14:26:59.841Z,99040.94
2019-06-20T14:29:32.484Z,99043.06
2019-06-20T14:32:04.882Z,99043.55
2019-06-20T14:34:37.547Z,99050.36
2019-06-20T14:37:10.097Z,99044.53
2019-06-20T14:39:44.860Z,99044.68
2019-06-20T14:42:16.621Z,99046.34
2019-06-20T14:44:49.851Z,99043.42
2019-06-20T14:47:22.306Z,99050.23
2019-06-20T14:49:54.782Z,99049.58
2019-06-20T14:52:27.272Z,99050.88
2019-06-20T14:55:00.731Z,99050.56
2019-06-20T14:57:34.304Z,99051.52
2019-06-20T15:00:07.077Z,99056.42
2019-06-20T15:02:39.748Z,99069.56
2019-06-20T15:05:15.766Z,99077.66
2019-06-20T15:07:49.588Z,99068.11
2019-06-20T15:10:23.436Z,99066.77
2019-06-20T15:12:56.205Z,99067.42
2019-06-20T15:15:31.454Z,99072.95
2019-06-20T15:18:02.892Z,99070.51
2019-06-20T15:20:35.261Z,99065.66
2019-06-20T15:23:07.752Z,99064.53
2019-06-20T15:25:40.162Z,99054.95
2019-06-20T15:28:12.646Z,99050.74
2019-06-20T15:30:47.083Z,99051.53
2019-06-20T15:33:19.162Z,99049.41
2019-06-20T15:35:53.476Z,99047.95
2019-06-20T15:38:25.656Z,99049.41
2019-06-20T15:40:58.084Z,99055.37
2019-06-20T15:43:30.416Z,99056.65
2019-06-20T15:46:02.767Z,99055.68
2019-06-20T15:48:35.155Z,99057.59
2019-06-20T15:51:07.583Z,99059.72
2019-06-20T15:53:39.978Z,99071.41
2019-06-20T15:56:12.459Z,99070.45
2019-06-20T15:58:44.829Z,99069.31
2019-06-20T16:01:17.243Z,99068.36
2019-06-20T16:03:49.724Z,99066.36
2019-06-20T16:06:22.135Z,99067.97
2019-06-20T16:08:54.530Z,99067.34
2019-06-20T16:11:26.965Z,99063.75
2019-06-20T16:13:59.360Z,99066.36
2019-06-20T16:16:31.802Z,99054.52
2019-06-20T16:19:04.191Z,99051.44
2019-06-20T16:21:36.612Z,99047.06
2019-06-20T16:24:12.460Z,99050.44
2019-06-20T16:26:43.164Z,99051.41
2019-06-20T16:29:15.633Z,99045.07
2019-06-20T16:31:50.304Z,99042.80
2019-06-20T16:34:22.712Z,99040.01
2019-06-20T16:37:09.169Z,99036.29
2019-06-20T16:39:29.327Z,99041.32
2019-06-20T16:42:01.753Z,99043.11
2019-06-20T16:44:34.247Z,99039.53
2019-06-20T16:47:06.666Z,99048.31
2019-06-20T16:49:39.175Z,99051.56
2019-06-20T16:52:11.918Z,99047.69
2019-06-20T16:54:46.541Z,99048.98
2019-06-20T16:57:22.436Z,99047.50
2019-06-20T16:59:56.390Z,99046.70
2019-06-20T17:02:31.159Z,99044.11
2019-06-20T17:05:03.528Z,99046.87
2019-06-20T17:07:36.004Z,99052.88
2019-06-20T17:10:09.216Z,99056.13
2019-06-20T17:12:41.635Z,99063.10
2019-06-20T17:15:14.935Z,99059.88
2019-06-20T17:17:47.352Z,99061.80
2019-06-20T17:20:21.400Z,99059.55
2019-06-20T17:22:53.817Z,99062.59
2019-06-20T17:25:26.226Z,99068.14
2019-06-20T17:27:58.669Z,99071.69
2019-06-20T17:30:31.208Z,99072.98
2019-06-20T17:33:03.643Z,99083.20
2019-06-20T17:35:35.983Z,99081.75
2019-06-20T17:38:08.404Z,99087.74
2019-06-20T17:40:40.809Z,99091.64
2019-06-20T17:43:13.234Z,99086.78
2019-06-20T17:45:45.625Z,99084.48
2019-06-20T17:48:20.403Z,99088.55
2019-06-20T17:50:52.756Z,99090.66
2019-06-20T17:53:25.180Z,99093.27
2019-06-20T17:55:58.185Z,99089.86
2019-06-20T17:58:30.607Z,99084.69
2019-06-20T18:01:03.020Z,99087.13
2019-06-20T18:03:35.545Z,99089.89
2019-06-20T18:06:07.945Z,99095.44
2019-06-20T18:08:40.428Z,99120.30
2019-06-20T18:11:13.017Z,99157.14
2019-06-20T18:13:45.473Z,99163.49
2019-06-20T18:16:25.047Z,99151.83
2019-06-20T18:18:52.006Z,99139.50
2019-06-20T18:21:24.403Z,99124.23
2019-06-20T18:23:56.957Z,99127.98
2019-06-20T18:26:30.461Z,99126.05
2019-06-20T18:29:02.975Z,99128.34
2019-06-20T18:31:35.364Z,99130.17
2019-06-20T18:34:07.720Z,99132.10
2019-06-20T18:36:43.344Z,99147.06
2019-06-20T18:39:14.247Z,99151.45
2019-06-20T18:41:47.508Z,99159.89
2019-06-20T18:44:21.123Z,99164.28
2019-06-20T18:46:53.527Z,99168.98
2019-06-20T18:49:26.051Z,99172.88
2019-06-20T18:51:58.428Z,99174.84
2019-06-20T18:54:30.860Z,99173.22
2019-06-20T18:57:03.256Z,99178.27
2019-06-20T18:59:36.686Z,99176.83
2019-06-20T19:02:09.229Z,99184.61
2019-06-20T19:04:47.962Z,99181.05
2019-06-20T19:07:15.745Z,99194.02
2019-06-20T19:09:48.206Z,99198.23
2019-06-20T19:12:20.526Z,99197.08
2019-06-20T19:14:52.941Z,99207.64
2019-06-20T19:17:25.362Z,99208.08
2019-06-20T19:19:57.754Z,99208.73
2019-06-20T19:22:30.246Z,99209.55
2019-06-20T19:25:04.012Z,99213.93
2019-06-20T19:27:46.192Z,99222.83
2019-06-20T19:30:10.878Z,99229.81
2019-06-20T19:32:43.308Z,99245.53
2019-06-20T19:35:15.782Z,99254.30
2019-06-20T19:37:48.109Z,99254.61
2019-06-20T19:40:20.429Z,99263.54
2019-06-20T19:42:52.824Z,99275.83
2019-06-20T19:45:25.250Z,99278.11
2019-06-20T19:47:57.752Z,99275.52
2019-06-20T19:50:30.175Z,99271.47
2019-06-20T19:53:02.661Z,99277.14
2019-06-20T19:55:35.135Z,99284.42
2019-06-20T19:58:07.541Z,99290.91
2019-06-20T20:00:40.054Z,99291.06
2019-06-20T20:03:12.442Z,99293.35
2019-06-20T20:05:45.339Z,99289.91
2019-06-20T20:08:17.741Z,99294.79
2019-06-20T20:10:50.179Z,99300.63
2019-06-20T20:13:22.563Z,99304.52
2019-06-20T20:15:55.024Z,99300.94
2019-06-20T20:18:27.368Z,99305.48
2019-06-20T20:20:59.835Z,99307.09
2019-06-20T20:23:32.244Z,99311.16
2019-06-20T20:26:08.444Z,99313.73
2019-06-20T20:28:38.759Z,99312.12
2019-06-20T20:31:11.270Z,99313.09
2019-06-20T20:33:43.764Z,99313.10
2019-06-20T20:36:24.915Z,99320.21
2019-06-20T20:38:50.278Z,99320.23
2019-06-20T20:41:22.629Z,99319.41
2019-06-20T20:43:55.015Z,99319.58
2019-06-20T20:46:27.367Z,99318.91
2019-06-20T20:48:59.721Z,99313.41
2019-06-20T20:51:32.116Z,99315.84
2019-06-20T20:54:04.523Z,99316.47
2019-06-20T20:56:36.939Z,99322.30
2019-06-20T20:59:09.423Z,99314.83
2019-06-20T21:01:41.847Z,99324.89
2019-06-20T21:04:14.239Z,99332.83
2019-06-20T21:06:46.700Z,99334.11
2019-06-20T21:09:19.089Z,99337.19
2019-06-20T21:11:51.643Z,99337.20
2019-06-20T21:14:24.053Z,99336.87
2019-06-20T21:16:56.473Z,99344.33
2019-06-20T21:19:28.953Z,99343.02
2019-06-20T21:22:01.307Z,99341.24
2019-06-20T21:24:33.693Z,99346.73
2019-06-20T21:27:06.119Z,99346.25
2019-06-20T21:29:38.542Z,99344.78
2019-06-20T21:32:10.886Z,99340.41
2019-06-20T21:34:43.276Z,99339.59
2019-06-20T21:37:15.775Z,99349.64
2019-06-20T21:39:48.170Z,99349.30
2019-06-20T21:42:20.516Z,99348.33
2019-06-20T21:44:52.910Z,99344.59
2019-06-20T21:47:25.388Z,99344.61
2019-06-20T21:49:57.798Z,99352.69
2019-06-20T21:52:30.181Z,99357.54
2019-06-20T21:55:02.689Z,99354.63
2019-06-20T21:57:35.378Z,99357.70
2019-06-20T22:00:10.739Z,99360.27
2019-06-20T22:02:44.682Z,99363.84
2019-06-20T22:05:17.016Z,99362.38
2019-06-20T22:07:49.391Z,99364.95
2019-06-20T22:10:21.781Z,99373.83
2019-06-20T22:12:54.237Z,99380.80
2019-06-20T22:15:26.703Z,99383.55
2019-06-20T22:17:59.102Z,99389.05
2019-06-20T22:20:31.498Z,99388.70
2019-06-20T22:23:03.913Z,99388.53
2019-06-20T22:25:36.331Z,99386.75
2019-06-20T22:28:08.752Z,99392.25
2019-06-20T22:30:51.907Z,99394.83
2019-06-20T22:33:24.387Z,99396.58
2019-06-20T22:35:56.788Z,99399.33
2019-06-20T22:38:29.503Z,99404.34
2019-06-20T22:41:01.897Z,99397.36
2019-06-20T22:43:34.312Z,99398.98
2019-06-20T22:46:06.723Z,99400.11
2019-06-20T22:48:39.137Z,99406.25
2019-06-20T22:51:13.776Z,99406.56
2019-06-20T22:53:45.673Z,99399.11
2019-06-20T22:56:18.064Z,99403.95
2019-06-20T22:58:51.541Z,99407.53
2019-06-20T23:01:23.934Z,99408.51
2019-06-20T23:03:56.349Z,99403.97
2019-06-20T23:06:28.737Z,99409.95
2019-06-20T23:09:01.173Z,99407.99
2019-06-20T23:11:35.157Z,99411.86
2019-06-20T23:14:07.569Z,99412.68
2019-06-20T23:16:40.006Z,99413.95
2019-06-20T23:19:12.409Z,99417.83
2019-06-20T23:21:44.748Z,99415.06
2019-06-20T23:24:17.165Z,99419.59
2019-06-20T23:26:49.635Z,99423.80
2019-06-20T23:29:24.993Z,99417.48
2019-06-20T23:31:57.406Z,99417.82
2019-06-20T23:34:29.819Z,99416.34
2019-06-20T23:37:12.375Z,99414.91
2019-06-20T23:39:36.337Z,99413.59
2019-06-20T23:42:08.723Z,99413.10
2019-06-20T23:44:41.139Z,99413.25
2019-06-20T23:47:13.596Z,99414.56
2019-06-20T23:49:46.358Z,99417.62
2019-06-20T23:52:21.547Z,99419.09
2019-06-20T23:54:54.047Z,99417.78
2019-06-20T23:57:26.367Z,99412.43
2019-06-20T23:59:58.781Z,99412.27
